• Join FlightAware (Why Join?)
  • Login
  • US Flag 
05:00AM EDT


 

Airport Tracker/Info


-or-


 

Live Flight TrackerFlight Track Log ✈ UAL4553 ✈ 25-Apr-2013 ✈ KGSP - KIAH

Flight Track Log - Related Links

Times and Time Zones

All times are in EDT time to prevent confusion due to time zone crossing. See the UAL4553 flight status page for this flight to view local times or setup timezone preferences in your user account.

Time Position Orientation Groundspeed Altitude Reporting Facility
EDT Latitude Longitude Course Direction KTS MPH feet Rate Location/Type
01:55PM 34.9911 -82.2183 239° Southwest 218 251 5,200  Level Atlanta Center
01:56PM 34.6843 -82.4516 224° Southwest  Level FlightAware Approximate
01:56PM 34.9694 -82.2975 252° West 226 260 7,000  Level Atlanta Center
01:57PM 34.6165 -82.5308 224° Southwest  Level FlightAware Approximate
01:57PM 34.9158 -82.3492 218° Southwest 213 245 9,300  Level Atlanta Center
01:58PM 34.5482 -82.6093 223° Southwest  Level FlightAware Approximate
01:58PM 34.8581 -82.4036 218° Southwest 235 270 11,300  Level Atlanta Center
01:59PM 34.4802 -82.6880 231° Southwest  Level FlightAware Approximate
01:59PM 34.7919 -82.4553 213° Southwest 266 306 12,500  Level Atlanta Center
02:00PM 34.4211 -82.7767 231° Southwest  Level FlightAware Approximate
02:00PM 34.7239 -82.5200 218° Southwest 295 339 14,100  Level Atlanta Center
02:01PM 34.3716 -82.8735 239° Southwest  Level FlightAware Approximate
02:01PM 34.6539 -82.5792 215° Southwest 309 356 15,500  Level Atlanta Center
02:02PM 34.5878 -82.6411 218° Southwest 315 362 16,700 1,200 Climbing Atlanta Center
02:03PM 34.5175 -82.7050 217° Southwest 315 362 17,900 1,020 Climbing Atlanta Center
02:04PM 34.4408 -82.7669 214° Southwest 320 368 18,800 1,020 Climbing Atlanta Center
02:05PM 34.3833 -82.8483 229° Southwest 325 374 20,000 1,200 Climbing Atlanta Center
02:06PM 34.3297 -82.9344 233° Southwest 324 373 21,200 1,200 Climbing Atlanta Center
02:07PM 34.2825 -83.0206 236° Southwest 324 373 22,400 1,140 Climbing Atlanta Center
02:08PM 34.2289 -83.1092 234° Southwest 324 373 23,500 1,020 Climbing Atlanta Center
02:09PM 34.1628 -83.1878 225° Southwest 330 380 24,500 1,020 Climbing Atlanta Center
02:10PM 34.0944 -83.2661 224° Southwest 341 392 25,600 1,020 Climbing Atlanta Center
02:11PM 34.0406 -83.3419 229° Southwest 336 387 26,600 1,080 Climbing Atlanta Center
02:12PM 33.9847 -83.4250 231° Southwest 331 381 27,800 1,200 Climbing Atlanta Center
02:13PM 33.9308 -83.5056 231° Southwest 331 381 29,100 1,380 Climbing Atlanta Center
02:14PM 33.8789 -83.5858 232° Southwest 317 365 30,600 1,440 Climbing Atlanta Center
02:15PM 33.8311 -83.6661 234° Southwest 305 351 32,000 1,200 Climbing Atlanta Center
02:16PM 33.7856 -83.7439 235° Southwest 299 344 33,100 960 Climbing Atlanta Center
02:17PM 33.7356 -83.8289 235° Southwest 289 333 34,000 420 Climbing Atlanta Center
02:18PM 33.6878 -83.9114 235° Southwest 289 333 34,000  Level Atlanta Center
02:19PM 33.6336 -84.0014 234° Southwest 312 359 34,000 600 Level Atlanta Center
02:20PM 33.5792 -84.0911 234° Southwest 340 391 35,200 960 Climbing Atlanta Center
02:21PM 33.5292 -84.1808 236° Southwest 333 383 36,000 360 Climbing Atlanta Center
02:22PM 33.4747 -84.2706 234° Southwest 333 383 36,000  Level Atlanta Center
02:23PM 33.4181 -84.3672 235° Southwest 338 389 36,000  Level Atlanta Center
02:24PM 33.3656 -84.4517 233° Southwest 353 406 36,000  Level Atlanta Center
02:25PM 33.3111 -84.5483 236° Southwest 358 412 36,000  Level Atlanta Center
02:26PM 33.2522 -84.6450 234° Southwest 358 412 36,000  Level Atlanta Center
02:27PM 33.1933 -84.7389 233° Southwest 356 410 36,000  Level Atlanta Center
02:28PM 33.1300 -84.8450 235° Southwest 361 415 36,000  Level Atlanta Center
02:29PM 33.0728 -84.9436 235° Southwest 361 415 36,000  Level Atlanta Center
02:30PM 33.0158 -85.0372 234° Southwest 361 415 36,000  Level Atlanta Center
02:31PM 32.9586 -85.1306 234° Southwest 361 415 36,000  Level Atlanta Center
02:32PM 32.9036 -85.2239 235° Southwest 356 410 36,000  Level Atlanta Center
02:33PM 32.8442 -85.3172 233° Southwest 361 415 36,000  Level Atlanta Center
02:34PM 32.7828 -85.4100 232° Southwest 361 415 36,000  Level Atlanta Center
02:35PM 32.7272 -85.5056 235° Southwest 361 415 36,000  Level Atlanta Center
02:36PM 32.6678 -85.5983 233° Southwest 361 415 36,000  Level Atlanta Center
02:37PM 32.6122 -85.6933 235° Southwest 361 415 36,000  Level Atlanta Center
02:38PM 32.5525 -85.7886 233° Southwest 361 415 36,000  Level Atlanta Center
02:39PM 32.4906 -85.8883 234° Southwest 368 423 36,000  Level Atlanta Center
02:40PM 32.4328 -85.9806 233° Southwest 369 425 36,000  Level Atlanta Center
02:41PM 32.3769 -86.0753 235° Southwest 364 419 36,000  Level Atlanta Center
02:43PM 32.2906 -86.1836 237° Southwest  Level FlightAware Approximate
02:43PM 32.2525 -86.2664 237° Southwest 364 419 36,000  Level Atlanta Center
02:44PM 32.1922 -86.3656 234° Southwest 370 426 36,000  Level Atlanta Center
02:45PM 32.1300 -86.4547 231° Southwest 370 426 36,000  Level Atlanta Center
02:46PM 32.0633 -86.5508 231° Southwest 370 426 36,000  Level Atlanta Center
02:47PM 31.9967 -86.6444 230° Southwest 370 426 36,000  Level Atlanta Center
02:48PM 31.9258 -86.7331 227° Southwest 380 437 36,000  Level Atlanta Center
02:49PM 31.8636 -86.8192 230° Southwest 387 445 36,000  Level Atlanta Center
02:50PM 31.7944 -86.9147 230° Southwest 387 445 36,000  Level Atlanta Center
02:52PM 31.6361 -87.1292 229° Southwest 380 437 36,000  Level Houston Center
02:54PM 31.5675 -87.2239 230° Southwest 381 438 36,000  Level Houston Center
02:55PM 31.4989 -87.3192 230° Southwest 382 440 36,000  Level Houston Center
02:56PM 31.4286 -87.4136 229° Southwest 384 442 36,000  Level Houston Center
02:57PM 31.3450 -87.5286 230° Southwest 386 444 36,000  Level Houston Center
02:58PM 31.2750 -87.6233 229° Southwest 386 444 36,000  Level Houston Center
02:59PM 31.2306 -87.7331 245° Southwest 374 430 36,000  Level Houston Center
03:00PM 31.1869 -87.8553 247° West 370 426 36,000  Level Houston Center
03:01PM 31.1478 -87.9661 248° West 371 427 36,000  Level Houston Center
03:02PM 31.1089 -88.0778 248° West 371 427 36,000  Level Houston Center
03:03PM 31.0686 -88.1889 247° West 372 428 36,000  Level Houston Center
03:04PM 31.0264 -88.3008 246° West 377 434 36,000  Level Houston Center
03:05PM 30.9883 -88.4117 248° West 372 428 36,000  Level Houston Center
03:06PM 30.9406 -88.5453 247° West 373 429 36,000  Level Houston Center
03:07PM 30.8994 -88.6578 247° West 377 434 36,000  Level Houston Center
03:08PM 30.8581 -88.7697 247° West 379 436 36,000  Level Houston Center
03:09PM 30.8175 -88.8819 247° West 377 434 36,000  Level Houston Center
03:10PM 30.7789 -88.9933 248° West 372 428 36,000  Level Houston Center
03:11PM 30.7308 -89.1278 247° West 375 432 36,000  Level Houston Center
03:12PM 30.6892 -89.2394 247° West 377 434 36,000  Level Houston Center
03:13PM 30.6492 -89.3503 247° West 375 432 36,000  Level Houston Center
03:14PM 30.6081 -89.4628 247° West 377 434 36,000  Level Houston Center
03:15PM 30.5683 -89.5739 247° West 377 434 36,000  Level Houston Center
03:16PM 30.5186 -89.7081 247° West 380 437 36,000  Level Houston Center
03:17PM 30.4769 -89.8175 246° West 378 435 36,000  Level Houston Center
03:18PM 30.4367 -89.9297 247° West 385 443 36,000  Level Houston Center
03:19PM 30.3944 -90.0394 246° West 381 438 36,000  Level Houston Center
03:20PM 30.3442 -90.1714 246° West 377 434 36,000  Level Houston Center
03:21PM 30.3017 -90.2839 246° West 384 442 36,000  Level Houston Center
03:23PM 30.2583 -90.3958 246° West 384 442 36,000  Level Houston Center
03:24PM 30.2167 -90.5094 247° West 386 444 36,000  Level Houston Center
03:25PM 30.1731 -90.6208 246° West 383 441 36,000  Level Houston Center
03:26PM 30.1306 -90.7342 247° West 384 442 36,000  Level Houston Center
03:27PM 30.0775 -90.8703 246° West 387 445 36,000  Level Houston Center
03:28PM 30.0339 -90.9836 246° West 387 445 36,000  Level Houston Center
03:29PM 29.9908 -91.0975 246° West 388 447 36,000  Level Houston Center
03:30PM 29.9461 -91.2100 245° Southwest 388 447 36,000  Level Houston Center
03:31PM 29.9017 -91.3247 246° West 390 449 36,000  Level Houston Center
03:32PM 29.8492 -91.4614 246° West 390 449 36,000  Level Houston Center
03:33PM 29.8047 -91.5756 246° West 392 451 36,000  Level Houston Center
03:34PM 29.7603 -91.6889 246° West 390 449 36,000  Level Houston Center
03:35PM 29.7153 -91.8028 246° West 389 448 36,000  Level Houston Center
03:36PM 29.6719 -91.9164 246° West 389 448 36,000  Level Houston Center
03:37PM 29.6261 -92.0300 245° Southwest 392 451 36,000  Level Houston Center
03:38PM 29.5817 -92.1428 246° West 389 448 36,000  Level Houston Center
03:39PM 29.5264 -92.2794 245° Southwest 392 451 36,000  Level Houston Center
03:40PM 29.4817 -92.3925 246° West 391 450 36,000  Level Houston Center
03:41PM 29.4592 -92.5106 258° West 385 443 36,000  Level Houston Center
03:42PM 29.4639 -92.6331 273° West 384 442 36,000  Level Houston Center
03:43PM 29.4694 -92.7561 273° West 386 444 36,000  Level Houston Center
03:44PM 29.4747 -92.8792 273° West 384 442 36,000 -240 Level Houston Center
03:45PM 29.4817 -93.0242 273° West 378 435 35,600 -480 Descending Houston Center
03:46PM 29.4869 -93.1378 273° West 360 414 35,100 -900 Descending Houston Center
03:47PM 29.4919 -93.2569 273° West 371 427 33,800 -1,620 Descending Houston Center
03:48PM 29.4961 -93.3789 272° West 380 437 31,800 -1,740 Descending Houston Center
03:49PM 29.5011 -93.5042 273° West 390 449 30,200 -1,260 Descending Houston Center
03:50PM 29.5067 -93.6311 273° West 396 456 29,300 -780 Descending Houston Center
03:51PM 29.5128 -93.7889 273° West 411 473 28,600 -960 Descending Houston Center
03:53PM 29.5181 -93.9211 273° West 413 475 27,400 -2,160 Descending Houston Center
03:54PM 29.5222 -94.0525 272° West 413 475 24,200 -3,840 Descending Houston Center
03:54PM 29.5261 -94.1586 272° West 394 453 20,600 -4,080 Descending Houston Center
03:55PM 29.5269 -94.1706 275° West 397 457 20,000 -4,500 Descending Houston Center
03:56PM 29.5267 -94.3158 270° West 385 443 14,700 -3,360 Descending Houston Center
03:57PM 29.5025 -94.4261 256° West 318 366 13,000 -1,320 Descending Houston Center
03:58PM 29.5494 -94.5081 303° West 333 383 12,000 -1,320 Descending Houston Center
03:59PM 29.6033 -94.5767 312° West 294 338 10,500 -1,620 Descending Houston Center
04:00PM 29.6633 -94.6531 312° West 275 316 8,800 -1,560 Descending Houston Center
04:01PM 29.6983 -94.7306 297° West 271 312 7,200 -1,380 Descending Houston Center
04:02PM 29.7311 -94.8106 295° West 268 308 6,000 -600 Descending Houston Center
04:03PM 29.7639 -94.8883 296° West 274 315 6,000  Level Houston Center
04:04PM 29.7983 -94.9681 296° West 269 310 6,000  Level Houston Center
04:05PM 29.8314 -95.0486 295° West 266 306 6,000  Level Houston Center
04:06PM 29.8639 -95.1264 296° West 282 325 6,000  Level Houston Center
04:07PM 29.8969 -95.2117 294° West 274 315 6,000  Level Houston Center
04:08PM 29.9003 -95.2908 273° West 270 311 6,000  Level Houston Center
04:08PM 29.8997 -95.3050 267° West 272 313 6,000  Level Houston Center
04:09PM 29.9000 -95.3800 270° West 273 314 6,000  Level Houston Center
04:09PM 29.9003 -95.3914 272° West 273 314 6,000  Level Houston Center
04:10PM 29.8989 -95.4619 269° West 246 283 6,000  Level Houston Center
04:10PM 29.9006 -95.4731 280° West 263 303 6,000 -420 Level Houston Center
04:11PM 29.9117 -95.5328 282° West 202 232 5,600 -900 Descending Houston Center
04:11PM 29.9283 -95.5356 352° North 222 255 5,100 -1,500 Descending Houston Center
04:12PM 29.9686 -95.5356 360° North 192 221 4,100 -1,500 Descending Houston Center
04:12PM 29.9822 -95.5314 15° North 198 228 3,600 -1,500 Descending Houston Center
04:13PM 29.9925 -95.4967 71° East 138 159 2,600 -1,200 Descending Houston Center
04:13PM 29.9925 -95.4839 90° East 171 197 2,400 -780 Descending Houston Center
04:14PM 29.9928 -95.4531 89° East 134 154 1,800 -780 Descending Houston Center
04:14PM 29.9928 -95.4392 90° East 153 176 1,600 -600 Descending Houston Center